Aviation Digital Data Service (ADDS)

Output produced by METARs form (0454 UTC 16 February 2019)
found at http://www.aviationweather.gov/metar/data/
 
METAR text: RPMZ 160400Z 17004KT 100V250 9999 FEW017 31/23 Q1014 RMK A2994
Conditions at: RPMZ (ZAMBOANGA (CIV/A, PH) observed 0400 UTC 16 February 2019
Temperature: 31.0°C (88°F)
Dewpoint: 23.0°C (73°F) [RH = 63%]
Pressure (altimeter): 29.94 inches Hg (1014.0 mb)
Winds: from the S (170 degrees) at 5 MPH (4 knots; 2.1 m/s)
Visibility: 6 or more miles (10+ km)
Ceiling: at least 12,000 feet AGL
Clouds: few clouds at 1700 feet AGL
Weather: no significant weather observed at this time

METAR text: RPMZ 160300Z 16006KT 100V230 9999 FEW017 SCT090 30/23 Q1015 RMK A2997
Conditions at: RPMZ (ZAMBOANGA (CIV/A, PH) observed 0300 UTC 16 February 2019
Temperature: 30.0°C (86°F)
Dewpoint: 23.0°C (73°F) [RH = 66%]
Pressure (altimeter): 29.97 inches Hg (1015.0 mb)
Winds: from the SSE (160 degrees) at 7 MPH (6 knots; 3.1 m/s)
Visibility: 6 or more miles (10+ km)
Ceiling: at least 12,000 feet AGL
Clouds: few clouds at 1700 feet AGL
scattered clouds at 9000 feet AGL
Weather: no significant weather observed at this time

METAR text: RPMZ 160200Z VRB04KT 9999 FEW017 29/23 Q1015 RMK A2997
Conditions at: RPMZ (ZAMBOANGA (CIV/A, PH) observed 0200 UTC 16 February 2019
Temperature: 29.0°C (84°F)
Dewpoint: 23.0°C (73°F) [RH = 70%]
Pressure (altimeter): 29.97 inches Hg (1015.0 mb)
Winds: variable direction winds at 5 MPH (4 knots; 2.1 m/s)
Visibility: 6 or more miles (10+ km)
Ceiling: at least 12,000 feet AGL
Clouds: few clouds at 1700 feet AGL
Weather: no significant weather observed at this time

METAR text: RPMZ 160100Z VRB03KT 9999 FEW017 30/22 Q1015 RMK A2997
Conditions at: RPMZ (ZAMBOANGA (CIV/A, PH) observed 0100 UTC 16 February 2019
Temperature: 30.0°C (86°F)
Dewpoint: 22.0°C (72°F) [RH = 62%]
Pressure (altimeter): 29.97 inches Hg (1015.0 mb)
Winds: variable direction winds at 3 MPH (3 knots; 1.5 m/s)
Visibility: 6 or more miles (10+ km)
Ceiling: at least 12,000 feet AGL
Clouds: few clouds at 1700 feet AGL
Weather: no significant weather observed at this time

METAR text: RPMZ 160000Z 06003KT 030V100 9999 FEW017 27/22 Q1015 RMK A2997
Conditions at: RPMZ (ZAMBOANGA (CIV/A, PH) observed 0000 UTC 16 February 2019
Temperature: 27.0°C (81°F)
Dewpoint: 22.0°C (72°F) [RH = 74%]
Pressure (altimeter): 29.97 inches Hg (1015.0 mb)
Winds: from the ENE (60 degrees) at 3 MPH (3 knots; 1.5 m/s)
Visibility: 6 or more miles (10+ km)
Ceiling: at least 12,000 feet AGL
Clouds: few clouds at 1700 feet AGL
Weather: no significant weather observed at this time

METAR text: RPMZ 152300Z 08002KT 9999 FEW017 24/22 Q1015 RMK A2997
Conditions at: RPMZ (ZAMBOANGA (CIV/A, PH) observed 2300 UTC 15 February 2019
Temperature: 24.0°C (75°F)
Dewpoint: 22.0°C (72°F) [RH = 89%]
Pressure (altimeter): 29.97 inches Hg (1015.0 mb)
Winds: from the E (80 degrees) at 2 MPH (2 knots; 1.0 m/s)
Visibility: 6 or more miles (10+ km)
Ceiling: at least 12,000 feet AGL
Clouds: few clouds at 1700 feet AGL
Weather: no significant weather observed at this time

METAR text: RPMZ 152200Z 07001KT 9999 FEW017 23/22 Q1014 RMK A2994
Conditions at: RPMZ (ZAMBOANGA (CIV/A, PH) observed 2200 UTC 15 February 2019
Temperature: 23.0°C (73°F)
Dewpoint: 22.0°C (72°F) [RH = 94%]
Pressure (altimeter): 29.94 inches Hg (1014.0 mb)
Winds: from the ENE (70 degrees) at 1 MPH (1 knots; 0.5 m/s)
Visibility: 6 or more miles (10+ km)
Ceiling: at least 12,000 feet AGL
Clouds: few clouds at 1700 feet AGL
Weather: no significant weather observed at this time

METAR text: RPMZ 152100Z 03004KT 9999 FEW017 23/22 Q1013 RMK A2991
Conditions at: RPMZ (ZAMBOANGA (CIV/A, PH) observed 2100 UTC 15 February 2019
Temperature: 23.0°C (73°F)
Dewpoint: 22.0°C (72°F) [RH = 94%]
Pressure (altimeter): 29.91 inches Hg (1013.0 mb)
Winds: from the NNE (30 degrees) at 5 MPH (4 knots; 2.1 m/s)
Visibility: 6 or more miles (10+ km)
Ceiling: at least 12,000 feet AGL
Clouds: few clouds at 1700 feet AGL
Weather: no significant weather observed at this time

METAR text: RPMZ 151800Z VRB02KT 9999 FEW017 25/22 Q1014 RMK A2994
Conditions at: RPMZ (ZAMBOANGA (CIV/A, PH) observed 1800 UTC 15 February 2019
Temperature: 25.0°C (77°F)
Dewpoint: 22.0°C (72°F) [RH = 83%]
Pressure (altimeter): 29.94 inches Hg (1014.0 mb)
Winds: variable direction winds at 2 MPH (2 knots; 1.0 m/s)
Visibility: 6 or more miles (10+ km)
Ceiling: at least 12,000 feet AGL
Clouds: few clouds at 1700 feet AGL
Weather: no significant weather observed at this time

METAR text: RPMZ 151500Z VRB01KT 9999 FEW017 25/21 Q1015 RMK A2997
Conditions at: RPMZ (ZAMBOANGA (CIV/A, PH) observed 1500 UTC 15 February 2019
Temperature: 25.0°C (77°F)
Dewpoint: 21.0°C (70°F) [RH = 79%]
Pressure (altimeter): 29.97 inches Hg (1015.0 mb)
Winds: variable direction winds at 1 MPH (1 knots; 0.5 m/s)
Visibility: 6 or more miles (10+ km)
Ceiling: at least 12,000 feet AGL
Clouds: few clouds at 1700 feet AGL
Weather: no significant weather observed at this time

METAR text: RPMZ 151200Z 26004KT 9999 FEW017 26/23 Q1014 RMK A2994
Conditions at: RPMZ (ZAMBOANGA (CIV/A, PH) observed 1200 UTC 15 February 2019
Temperature: 26.0°C (79°F)
Dewpoint: 23.0°C (73°F) [RH = 84%]
Pressure (altimeter): 29.94 inches Hg (1014.0 mb)
Winds: from the W (260 degrees) at 5 MPH (4 knots; 2.1 m/s)
Visibility: 6 or more miles (10+ km)
Ceiling: at least 12,000 feet AGL
Clouds: few clouds at 1700 feet AGL
Weather: no significant weather observed at this time

METAR text: RPMZ 151000Z 28008KT 9999 FEW017 28/23 Q1013 RMK A2991
Conditions at: RPMZ (ZAMBOANGA (CIV/A, PH) observed 1000 UTC 15 February 2019
Temperature: 28.0°C (82°F)
Dewpoint: 23.0°C (73°F) [RH = 74%]
Pressure (altimeter): 29.91 inches Hg (1013.0 mb)
Winds: from the W (280 degrees) at 9 MPH (8 knots; 4.1 m/s)
Visibility: 6 or more miles (10+ km)
Ceiling: at least 12,000 feet AGL
Clouds: few clouds at 1700 feet AGL
Weather: no significant weather observed at this time

METAR text: RPMZ 150900Z 27007KT 9999 FEW017 SCT090 29/23 Q1013 RMK A2991
Conditions at: RPMZ (ZAMBOANGA (CIV/A, PH) observed 0900 UTC 15 February 2019
Temperature: 29.0°C (84°F)
Dewpoint: 23.0°C (73°F) [RH = 70%]
Pressure (altimeter): 29.91 inches Hg (1013.0 mb)
Winds: from the W (270 degrees) at 8 MPH (7 knots; 3.6 m/s)
Visibility: 6 or more miles (10+ km)
Ceiling: at least 12,000 feet AGL
Clouds: few clouds at 1700 feet AGL
scattered clouds at 9000 feet AGL
Weather: no significant weather observed at this time

METAR text: RPMZ 150800Z 25006KT 210V300 9999 FEW016CB SCT090 29/23 Q1012 RMK A2988 CB NW
Conditions at: RPMZ (ZAMBOANGA (CIV/A, PH) observed 0800 UTC 15 February 2019
Temperature: 29.0°C (84°F)
Dewpoint: 23.0°C (73°F) [RH = 70%]
Pressure (altimeter): 29.88 inches Hg (1012.0 mb)
Winds: from the WSW (250 degrees) at 7 MPH (6 knots; 3.1 m/s)
Visibility: 6 or more miles (10+ km)
Ceiling: at least 12,000 feet AGL
Clouds: few clouds at 1600 feet AGL
scattered clouds at 9000 feet AGL
Weather: no significant weather observed at this time

METAR text: RPMZ 150700Z 26008KT 220V300 9999 FEW016CB 30/23 Q1012 RMK A2988 CB NW/N
Conditions at: RPMZ (ZAMBOANGA (CIV/A, PH) observed 0700 UTC 15 February 2019
Temperature: 30.0°C (86°F)
Dewpoint: 23.0°C (73°F) [RH = 66%]
Pressure (altimeter): 29.88 inches Hg (1012.0 mb)
Winds: from the W (260 degrees) at 9 MPH (8 knots; 4.1 m/s)
Visibility: 6 or more miles (10+ km)
Ceiling: at least 12,000 feet AGL
Clouds: few clouds at 1600 feet AGL
Weather: no significant weather observed at this time

METAR text: RPMZ 150600Z 25007KT 170V330 9999 FEW017 30/23 Q1013 RMK A2991
Conditions at: RPMZ (ZAMBOANGA (CIV/A, PH) observed 0600 UTC 15 February 2019
Temperature: 30.0°C (86°F)
Dewpoint: 23.0°C (73°F) [RH = 66%]
Pressure (altimeter): 29.91 inches Hg (1013.0 mb)
Winds: from the WSW (250 degrees) at 8 MPH (7 knots; 3.6 m/s)
Visibility: 6 or more miles (10+ km)
Ceiling: at least 12,000 feet AGL
Clouds: few clouds at 1700 feet AGL
Weather: no significant weather observed at this time

METAR text: RPMZ 150500Z 27007KT 230V310 9999 FEW016CB FEW017 SCT090 29/24 Q1014 RMK A2994 CB NW
Conditions at: RPMZ (ZAMBOANGA (CIV/A, PH) observed 0500 UTC 15 February 2019
Temperature: 29.0°C (84°F)
Dewpoint: 24.0°C (75°F) [RH = 74%]
Pressure (altimeter): 29.94 inches Hg (1014.0 mb)
Winds: from the W (270 degrees) at 8 MPH (7 knots; 3.6 m/s)
Visibility: 6 or more miles (10+ km)
Ceiling: at least 12,000 feet AGL
Clouds: few clouds at 1600 feet AGL
few clouds at 1700 feet AGL
scattered clouds at 9000 feet AGL
Weather: no significant weather observed at this time

METAR text: RPMZ 150400Z 20007KT 9999 FEW016CB BKN090 28/24 Q1015 RMK A2997 CB NW , E
Conditions at: RPMZ (ZAMBOANGA (CIV/A, PH) observed 0400 UTC 15 February 2019
Temperature: 28.0°C (82°F)
Dewpoint: 24.0°C (75°F) [RH = 79%]
Pressure (altimeter): 29.97 inches Hg (1015.0 mb)
Winds: from the SSW (200 degrees) at 8 MPH (7 knots; 3.6 m/s)
Visibility: 6 or more miles (10+ km)
Ceiling: 9000 feet AGL
Clouds: few clouds at 1600 feet AGL
broken clouds at 9000 feet AGL
Weather: no significant weather observed at this time

METAR text: RPMZ 150300Z 26008KT 220V290 9999 FEW016CB FEW017 BKN090 28/24 Q1015 RMK A2997 CB NW ,NE
Conditions at: RPMZ (ZAMBOANGA (CIV/A, PH) observed 0300 UTC 15 February 2019
Temperature: 28.0°C (82°F)
Dewpoint: 24.0°C (75°F) [RH = 79%]
Pressure (altimeter): 29.97 inches Hg (1015.0 mb)
Winds: from the W (260 degrees) at 9 MPH (8 knots; 4.1 m/s)
Visibility: 6 or more miles (10+ km)
Ceiling: 9000 feet AGL
Clouds: few clouds at 1600 feet AGL
few clouds at 1700 feet AGL
broken clouds at 9000 feet AGL
Weather: no significant weather observed at this time

METAR text: RPMZ 150200Z 08005KT 360V160 9999 FEW017 SCT090 28/24 Q1016 TMK A3000
Conditions at: RPMZ (ZAMBOANGA (CIV/A, PH) observed 0200 UTC 15 February 2019
Temperature: 28.0°C (82°F)
Dewpoint: 24.0°C (75°F) [RH = 79%]
Pressure (altimeter): 30.00 inches Hg (1016.0 mb)
Winds: from the E (80 degrees) at 6 MPH (5 knots; 2.6 m/s)
Visibility: 6 or more miles (10+ km)
Ceiling: at least 12,000 feet AGL
Clouds: few clouds at 1700 feet AGL
scattered clouds at 9000 feet AGL
Weather: no significant weather observed at this time

METAR text: RPMZ 150100Z 08008KT 040V110 9999 FEW017 SCT090 30/23 Q1015 RMK A2997
Conditions at: RPMZ (ZAMBOANGA (CIV/A, PH) observed 0100 UTC 15 February 2019
Temperature: 30.0°C (86°F)
Dewpoint: 23.0°C (73°F) [RH = 66%]
Pressure (altimeter): 29.97 inches Hg (1015.0 mb)
Winds: from the E (80 degrees) at 9 MPH (8 knots; 4.1 m/s)
Visibility: 6 or more miles (10+ km)
Ceiling: at least 12,000 feet AGL
Clouds: few clouds at 1700 feet AGL
scattered clouds at 9000 feet AGL
Weather: no significant weather observed at this time

METAR text: RPMZ 150000Z VRB02KT 9999 FEW017 28/23 Q1015 RMK A2997
Conditions at: RPMZ (ZAMBOANGA (CIV/A, PH) observed 0000 UTC 15 February 2019
Temperature: 28.0°C (82°F)
Dewpoint: 23.0°C (73°F) [RH = 74%]
Pressure (altimeter): 29.97 inches Hg (1015.0 mb)
Winds: variable direction winds at 2 MPH (2 knots; 1.0 m/s)
Visibility: 6 or more miles (10+ km)
Ceiling: at least 12,000 feet AGL
Clouds: few clouds at 1700 feet AGL
Weather: no significant weather observed at this time

METAR text: RPMZ 142300Z VRB02KT 9999 FEW017 25/23 Q1015 RMK A2997
Conditions at: RPMZ (ZAMBOANGA (CIV/A, PH) observed 2300 UTC 14 February 2019
Temperature: 25.0°C (77°F)
Dewpoint: 23.0°C (73°F) [RH = 89%]
Pressure (altimeter): 29.97 inches Hg (1015.0 mb)
Winds: variable direction winds at 2 MPH (2 knots; 1.0 m/s)
Visibility: 6 or more miles (10+ km)
Ceiling: at least 12,000 feet AGL
Clouds: few clouds at 1700 feet AGL
Weather: no significant weather observed at this time

METAR text: RPMZ 142200Z VRB02KT 9999 FEW017 23/22 Q1014 RMK A2994
Conditions at: RPMZ (ZAMBOANGA (CIV/A, PH) observed 2200 UTC 14 February 2019
Temperature: 23.0°C (73°F)
Dewpoint: 22.0°C (72°F) [RH = 94%]
Pressure (altimeter): 29.94 inches Hg (1014.0 mb)
Winds: variable direction winds at 2 MPH (2 knots; 1.0 m/s)
Visibility: 6 or more miles (10+ km)
Ceiling: at least 12,000 feet AGL
Clouds: few clouds at 1700 feet AGL
Weather: no significant weather observed at this time

METAR text: RPMZ 142100Z VRB02KT 9999 FEW017 24/22 Q1013 RMK A2991
Conditions at: RPMZ (ZAMBOANGA (CIV/A, PH) observed 2100 UTC 14 February 2019
Temperature: 24.0°C (75°F)
Dewpoint: 22.0°C (72°F) [RH = 89%]
Pressure (altimeter): 29.91 inches Hg (1013.0 mb)
Winds: variable direction winds at 2 MPH (2 knots; 1.0 m/s)
Visibility: 6 or more miles (10+ km)
Ceiling: at least 12,000 feet AGL
Clouds: few clouds at 1700 feet AGL
Weather: no significant weather observed at this time

METAR text: RPMZ 141800Z 04003KT 9999 FEW017 24/22 Q1013 RMK A2991
Conditions at: RPMZ (ZAMBOANGA (CIV/A, PH) observed 1800 UTC 14 February 2019
Temperature: 24.0°C (75°F)
Dewpoint: 22.0°C (72°F) [RH = 89%]
Pressure (altimeter): 29.91 inches Hg (1013.0 mb)
Winds: from the NE (40 degrees) at 3 MPH (3 knots; 1.5 m/s)
Visibility: 6 or more miles (10+ km)
Ceiling: at least 12,000 feet AGL
Clouds: few clouds at 1700 feet AGL
Weather: no significant weather observed at this time

Forecast for: RPMZ (ZAMBOANGA (CIV/A, PH)
Text: TAF RPMZ 152300Z 1600/1624 25006KT 9999 FEW017 SCT300
Forecast period: 0000 UTC 16 February 2019 to 0000 UTC 17 February 2019
Forecast type: FROM: standard forecast or significant change
Winds: from the WSW (250 degrees) at 7 MPH (6 knots; 3.1 m/s)
Visibility: 6 or more miles 10+ km)
Ceiling: at least 12,000 feet AGL
Clouds: few clouds at 1700 feet AGL
scattered clouds at 30000 feet AGL
Weather: no significant weather forecast for this period
Text: TEMPO 1600/1606 06008KT FEW017 SCT090
Forecast period: 0000 to 0600 UTC 16 February 2019
Forecast type: TEMPORARY: The following changes expected for less than half the time period
Winds: from the ENE (60 degrees) at 9 MPH (8 knots; 4.1 m/s)
Visibility: missing
Ceiling: at least 12,000 feet AGL
Clouds: few clouds at 1700 feet AGL
scattered clouds at 9000 feet AGL
Weather: no significant weather forecast for this period